Carterton, Virginia
Current Conditions -  °F | °C
As of 7:55 PM on Saturday 20 Dec 2014 (Local Time) from KVJI Reporting Station
Haze Haze  
Wind Chill: 40°   Ceiling: 800
Heat Index: 40°   Visibility: 5mi
Dew Point: 39°   Wind: 0mph
Humidity: 97%   Direction: NA
Pressure: 30.19"   Gusts: NA
Location:  36.85°N, 82.1249°W
Report Text: KVJI 210055Z AUTO 00000KT 5SM BR OVC008 04/04 A3019 RMK AO2 T00430038
Loading
Personal Weather Stations






























Interactive Weather Map New forecast layout! Learn more

10-Day Weather Forecast

Advertisements
Track Severe Weather on mobile